sensor_id;sensor_type;location;lat;lon;timestamp;temperature;humidity
4813;DHT22;2420;51.202;8.698;2023-02-03T00:01:15;5.90;1.00
4813;DHT22;2420;51.202;8.698;2023-02-03T00:13:47;5.70;1.00
4813;DHT22;2420;51.202;8.698;2023-02-03T00:16:12;5.80;1.00
4813;DHT22;2420;51.202;8.698;2023-02-03T00:18:38;5.80;1.00
4813;DHT22;2420;51.202;8.698;2023-02-03T00:21:04;5.80;1.00
4813;DHT22;2420;51.202;8.698;2023-02-03T00:23:30;5.80;1.00
4813;DHT22;2420;51.202;8.698;2023-02-03T00:25:57;5.90;1.00
4813;DHT22;2420;51.202;8.698;2023-02-03T00:28:30;5.80;1.00
4813;DHT22;2420;51.202;8.698;2023-02-03T00:30:56;5.90;1.00
4813;DHT22;2420;51.202;8.698;2023-02-03T00:33:21;5.90;1.00
4813;DHT22;2420;51.202;8.698;2023-02-03T00:35:47;5.90;1.00
4813;DHT22;2420;51.202;8.698;2023-02-03T00:38:14;6.00;1.00
4813;DHT22;2420;51.202;8.698;2023-02-03T00:40:39;5.90;1.00
4813;DHT22;2420;51.202;8.698;2023-02-03T00:43:05;5.50;1.00
4813;DHT22;2420;51.202;8.698;2023-02-03T00:45:30;6.00;1.00
4813;DHT22;2420;51.202;8.698;2023-02-03T00:47:56;5.80;1.00
4813;DHT22;2420;51.202;8.698;2023-02-03T00:50:21;5.90;1.00
4813;DHT22;2420;51.202;8.698;2023-02-03T00:52:47;5.90;1.00
4813;DHT22;2420;51.202;8.698;2023-02-03T00:55:12;5.90;1.00
4813;DHT22;2420;51.202;8.698;2023-02-03T00:57:38;6.10;1.00
4813;DHT22;2420;51.202;8.698;2023-02-03T01:00:04;5.90;1.00
4813;DHT22;2420;51.202;8.698;2023-02-03T01:02:30;5.90;1.00
4813;DHT22;2420;51.202;8.698;2023-02-03T01:04:55;5.90;1.00
4813;DHT22;2420;51.202;8.698;2023-02-03T01:07:21;6.00;1.00
4813;DHT22;2420;51.202;8.698;2023-02-03T01:09:46;5.80;1.00
4813;DHT22;2420;51.202;8.698;2023-02-03T01:12:12;5.80;1.00
4813;DHT22;2420;51.202;8.698;2023-02-03T01:14:38;5.90;1.00
4813;DHT22;2420;51.202;8.698;2023-02-03T01:17:03;5.80;1.00
4813;DHT22;2420;51.202;8.698;2023-02-03T01:19:29;6.00;1.00
4813;DHT22;2420;51.202;8.698;2023-02-03T01:21:54;5.80;1.00
4813;DHT22;2420;51.202;8.698;2023-02-03T01:24:20;6.00;1.00
4813;DHT22;2420;51.202;8.698;2023-02-03T01:26:45;5.90;1.00
4813;DHT22;2420;51.202;8.698;2023-02-03T01:29:11;5.90;1.00
4813;DHT22;2420;51.202;8.698;2023-02-03T01:31:38;6.00;1.00
4813;DHT22;2420;51.202;8.698;2023-02-03T01:34:05;6.10;1.00
4813;DHT22;2420;51.202;8.698;2023-02-03T01:36:33;6.00;1.00
4813;DHT22;2420;51.202;8.698;2023-02-03T01:38:59;6.00;1.00
4813;DHT22;2420;51.202;8.698;2023-02-03T01:41:31;6.00;1.00
4813;DHT22;2420;51.202;8.698;2023-02-03T01:43:58;6.00;1.00
4813;DHT22;2420;51.202;8.698;2023-02-03T01:46:47;6.20;1.00
4813;DHT22;2420;51.202;8.698;2023-02-03T01:49:26;6.00;1.00
4813;DHT22;2420;51.202;8.698;2023-02-03T01:51:54;5.90;1.00
4813;DHT22;2420;51.202;8.698;2023-02-03T01:54:28;5.90;1.00
4813;DHT22;2420;51.202;8.698;2023-02-03T01:56:58;6.00;1.00
4813;DHT22;2420;51.202;8.698;2023-02-03T01:59:25;6.00;1.00
4813;DHT22;2420;51.202;8.698;2023-02-03T02:01:52;6.00;1.00
4813;DHT22;2420;51.202;8.698;2023-02-03T02:04:18;6.00;1.00
4813;DHT22;2420;51.202;8.698;2023-02-03T02:06:45;6.00;1.00
4813;DHT22;2420;51.202;8.698;2023-02-03T02:09:13;6.00;1.00
4813;DHT22;2420;51.202;8.698;2023-02-03T02:11:38;6.10;1.00
4813;DHT22;2420;51.202;8.698;2023-02-03T02:14:04;6.10;1.00
4813;DHT22;2420;51.202;8.698;2023-02-03T02:28:33;6.00;1.00
4813;DHT22;2420;51.202;8.698;2023-02-03T02:34:13;6.00;1.00
4813;DHT22;2420;51.202;8.698;2023-02-03T02:37:01;6.00;1.00
4813;DHT22;2420;51.202;8.698;2023-02-03T02:39:50;5.90;1.00
4813;DHT22;2420;51.202;8.698;2023-02-03T02:45:21;5.40;1.00
4813;DHT22;2420;51.202;8.698;2023-02-03T02:47:47;5.50;1.00
4813;DHT22;2420;51.202;8.698;2023-02-03T02:50:22;6.00;1.00
4813;DHT22;2420;51.202;8.698;2023-02-03T02:52:50;5.90;1.00
4813;DHT22;2420;51.202;8.698;2023-02-03T02:55:22;6.20;1.00
4813;DHT22;2420;51.202;8.698;2023-02-03T02:57:50;6.10;1.00
4813;DHT22;2420;51.202;8.698;2023-02-03T03:00:16;5.90;1.00
4813;DHT22;2420;51.202;8.698;2023-02-03T03:02:42;6.00;1.00
4813;DHT22;2420;51.202;8.698;2023-02-03T03:05:09;6.10;1.00
4813;DHT22;2420;51.202;8.698;2023-02-03T03:07:41;5.90;1.00
4813;DHT22;2420;51.202;8.698;2023-02-03T03:10:12;6.00;1.00
4813;DHT22;2420;51.202;8.698;2023-02-03T03:12:45;6.00;1.00
4813;DHT22;2420;51.202;8.698;2023-02-03T03:15:26;6.10;1.00
4813;DHT22;2420;51.202;8.698;2023-02-03T03:20:54;6.00;1.00
4813;DHT22;2420;51.202;8.698;2023-02-03T03:23:26;5.90;1.00
4813;DHT22;2420;51.202;8.698;2023-02-03T03:26:02;6.10;1.00
4813;DHT22;2420;51.202;8.698;2023-02-03T03:28:34;6.00;1.00
4813;DHT22;2420;51.202;8.698;2023-02-03T03:31:01;6.10;1.00
4813;DHT22;2420;51.202;8.698;2023-02-03T03:33:27;6.20;1.00
4813;DHT22;2420;51.202;8.698;2023-02-03T03:36:00;6.10;1.00
4813;DHT22;2420;51.202;8.698;2023-02-03T03:38:41;6.10;1.00
4813;DHT22;2420;51.202;8.698;2023-02-03T03:41:25;6.00;1.00
4813;DHT22;2420;51.202;8.698;2023-02-03T03:43:54;5.90;1.00
4813;DHT22;2420;51.202;8.698;2023-02-03T03:46:26;6.00;1.00
4813;DHT22;2420;51.202;8.698;2023-02-03T03:49:03;6.00;1.00
4813;DHT22;2420;51.202;8.698;2023-02-03T03:51:50;6.20;1.00
4813;DHT22;2420;51.202;8.698;2023-02-03T03:54:21;6.10;1.00
4813;DHT22;2420;51.202;8.698;2023-02-03T03:57:01;6.30;1.00
4813;DHT22;2420;51.202;8.698;2023-02-03T03:59:31;6.20;1.00
4813;DHT22;2420;51.202;8.698;2023-02-03T04:01:59;6.30;1.00
4813;DHT22;2420;51.202;8.698;2023-02-03T04:04:29;6.10;1.00
4813;DHT22;2420;51.202;8.698;2023-02-03T04:06:56;6.10;1.00
4813;DHT22;2420;51.202;8.698;2023-02-03T04:09:22;6.20;1.00
4813;DHT22;2420;51.202;8.698;2023-02-03T04:11:47;6.20;1.00
4813;DHT22;2420;51.202;8.698;2023-02-03T04:14:32;6.10;1.00
4813;DHT22;2420;51.202;8.698;2023-02-03T04:16:57;5.90;1.00
4813;DHT22;2420;51.202;8.698;2023-02-03T04:19:23;6.10;1.00
4813;DHT22;2420;51.202;8.698;2023-02-03T04:21:49;6.20;1.00
4813;DHT22;2420;51.202;8.698;2023-02-03T04:24:14;6.10;1.00
4813;DHT22;2420;51.202;8.698;2023-02-03T04:26:40;6.40;1.00
4813;DHT22;2420;51.202;8.698;2023-02-03T04:29:05;6.10;1.00
4813;DHT22;2420;51.202;8.698;2023-02-03T04:31:31;6.10;1.00
4813;DHT22;2420;51.202;8.698;2023-02-03T04:33:57;6.30;1.00
4813;DHT22;2420;51.202;8.698;2023-02-03T04:36:22;6.10;1.00
4813;DHT22;2420;51.202;8.698;2023-02-03T04:38:48;6.00;1.00
4813;DHT22;2420;51.202;8.698;2023-02-03T04:41:14;6.10;1.00
4813;DHT22;2420;51.202;8.698;2023-02-03T04:43:40;6.20;1.00
4813;DHT22;2420;51.202;8.698;2023-02-03T04:46:05;6.10;1.00
4813;DHT22;2420;51.202;8.698;2023-02-03T04:48:31;6.20;1.00
4813;DHT22;2420;51.202;8.698;2023-02-03T04:51:04;6.40;1.00
4813;DHT22;2420;51.202;8.698;2023-02-03T04:53:30;6.20;1.00
4813;DHT22;2420;51.202;8.698;2023-02-03T04:55:56;5.90;1.00
4813;DHT22;2420;51.202;8.698;2023-02-03T04:58:21;6.00;1.00
4813;DHT22;2420;51.202;8.698;2023-02-03T05:00:47;5.70;1.00
4813;DHT22;2420;51.202;8.698;2023-02-03T05:03:13;6.00;1.00
4813;DHT22;2420;51.202;8.698;2023-02-03T05:05:39;6.10;1.00
4813;DHT22;2420;51.202;8.698;2023-02-03T05:08:04;6.10;1.00
4813;DHT22;2420;51.202;8.698;2023-02-03T05:10:30;6.30;1.00
4813;DHT22;2420;51.202;8.698;2023-02-03T05:12:56;6.00;1.00
4813;DHT22;2420;51.202;8.698;2023-02-03T05:15:21;6.20;1.00
4813;DHT22;2420;51.202;8.698;2023-02-03T05:17:47;6.10;1.00
4813;DHT22;2420;51.202;8.698;2023-02-03T05:20:12;6.10;1.00
4813;DHT22;2420;51.202;8.698;2023-02-03T05:22:38;6.00;1.00
4813;DHT22;2420;51.202;8.698;2023-02-03T05:25:04;5.90;1.00
4813;DHT22;2420;51.202;8.698;2023-02-03T05:27:30;6.20;1.00
4813;DHT22;2420;51.202;8.698;2023-02-03T05:29:55;6.30;1.00
4813;DHT22;2420;51.202;8.698;2023-02-03T05:32:21;6.30;1.00
4813;DHT22;2420;51.202;8.698;2023-02-03T05:34:46;6.10;1.00
4813;DHT22;2420;51.202;8.698;2023-02-03T05:37:12;6.10;1.00
4813;DHT22;2420;51.202;8.698;2023-02-03T05:39:37;5.70;1.00
4813;DHT22;2420;51.202;8.698;2023-02-03T05:42:04;6.10;1.00
4813;DHT22;2420;51.202;8.698;2023-02-03T05:44:29;6.20;1.00
4813;DHT22;2420;51.202;8.698;2023-02-03T05:46:57;6.20;1.00
4813;DHT22;2420;51.202;8.698;2023-02-03T05:49:23;6.10;1.00
4813;DHT22;2420;51.202;8.698;2023-02-03T05:51:52;6.10;1.00
4813;DHT22;2420;51.202;8.698;2023-02-03T05:54:17;6.20;1.00
4813;DHT22;2420;51.202;8.698;2023-02-03T05:56:43;6.00;1.00
4813;DHT22;2420;51.202;8.698;2023-02-03T05:59:09;5.80;1.00
4813;DHT22;2420;51.202;8.698;2023-02-03T06:01:35;6.10;1.00
4813;DHT22;2420;51.202;8.698;2023-02-03T06:04:01;6.10;1.00
4813;DHT22;2420;51.202;8.698;2023-02-03T06:06:27;6.20;1.00
4813;DHT22;2420;51.202;8.698;2023-02-03T06:09:04;6.20;1.00
4813;DHT22;2420;51.202;8.698;2023-02-03T06:11:31;6.20;1.00
4813;DHT22;2420;51.202;8.698;2023-02-03T06:13:57;6.40;1.00
4813;DHT22;2420;51.202;8.698;2023-02-03T06:16:24;6.20;1.00
4813;DHT22;2420;51.202;8.698;2023-02-03T06:18:51;6.10;1.00
4813;DHT22;2420;51.202;8.698;2023-02-03T06:21:17;6.20;1.00
4813;DHT22;2420;51.202;8.698;2023-02-03T06:23:43;6.30;1.00
4813;DHT22;2420;51.202;8.698;2023-02-03T06:26:08;6.30;1.00
4813;DHT22;2420;51.202;8.698;2023-02-03T06:28:34;6.30;1.00
4813;DHT22;2420;51.202;8.698;2023-02-03T06:31:00;6.20;1.00
4813;DHT22;2420;51.202;8.698;2023-02-03T06:33:25;6.20;1.00
4813;DHT22;2420;51.202;8.698;2023-02-03T06:35:52;6.20;1.00
4813;DHT22;2420;51.202;8.698;2023-02-03T06:38:18;6.20;1.00
4813;DHT22;2420;51.202;8.698;2023-02-03T06:40:46;6.20;1.00
4813;DHT22;2420;51.202;8.698;2023-02-03T06:43:12;6.20;1.00
4813;DHT22;2420;51.202;8.698;2023-02-03T06:45:37;6.20;1.00
4813;DHT22;2420;51.202;8.698;2023-02-03T06:48:03;6.30;1.00
4813;DHT22;2420;51.202;8.698;2023-02-03T06:50:28;5.90;1.00
4813;DHT22;2420;51.202;8.698;2023-02-03T06:52:54;6.30;1.00
4813;DHT22;2420;51.202;8.698;2023-02-03T06:55:19;6.30;1.00
4813;DHT22;2420;51.202;8.698;2023-02-03T06:57:46;6.30;1.00
4813;DHT22;2420;51.202;8.698;2023-02-03T07:00:13;6.40;1.00
4813;DHT22;2420;51.202;8.698;2023-02-03T07:02:39;6.30;1.00
4813;DHT22;2420;51.202;8.698;2023-02-03T07:05:05;6.30;1.00
4813;DHT22;2420;51.202;8.698;2023-02-03T07:07:31;6.30;1.00
4813;DHT22;2420;51.202;8.698;2023-02-03T07:09:59;6.20;1.00
4813;DHT22;2420;51.202;8.698;2023-02-03T07:12:24;6.20;1.00
4813;DHT22;2420;51.202;8.698;2023-02-03T07:14:50;6.20;1.00
4813;DHT22;2420;51.202;8.698;2023-02-03T07:17:15;6.20;1.00
4813;DHT22;2420;51.202;8.698;2023-02-03T07:19:41;6.30;1.00
4813;DHT22;2420;51.202;8.698;2023-02-03T07:22:07;6.40;1.00
4813;DHT22;2420;51.202;8.698;2023-02-03T07:24:33;6.30;1.00
4813;DHT22;2420;51.202;8.698;2023-02-03T07:26:59;6.20;1.00
4813;DHT22;2420;51.202;8.698;2023-02-03T07:29:24;6.10;1.00
4813;DHT22;2420;51.202;8.698;2023-02-03T07:31:50;6.20;1.00
4813;DHT22;2420;51.202;8.698;2023-02-03T07:34:15;6.20;1.00
4813;DHT22;2420;51.202;8.698;2023-02-03T07:36:41;6.30;1.00
4813;DHT22;2420;51.202;8.698;2023-02-03T07:39:06;6.20;1.00
4813;DHT22;2420;51.202;8.698;2023-02-03T07:41:32;6.20;1.00
4813;DHT22;2420;51.202;8.698;2023-02-03T07:43:57;6.40;1.00
4813;DHT22;2420;51.202;8.698;2023-02-03T07:46:23;6.20;1.00
4813;DHT22;2420;51.202;8.698;2023-02-03T07:48:49;6.20;1.00
4813;DHT22;2420;51.202;8.698;2023-02-03T07:51:14;6.20;1.00
4813;DHT22;2420;51.202;8.698;2023-02-03T07:53:40;6.50;1.00
4813;DHT22;2420;51.202;8.698;2023-02-03T07:56:05;5.90;1.00
4813;DHT22;2420;51.202;8.698;2023-02-03T07:58:32;6.30;1.00
4813;DHT22;2420;51.202;8.698;2023-02-03T08:00:58;6.30;1.00
4813;DHT22;2420;51.202;8.698;2023-02-03T08:03:24;6.30;1.00
4813;DHT22;2420;51.202;8.698;2023-02-03T08:05:49;6.40;1.00
4813;DHT22;2420;51.202;8.698;2023-02-03T08:08:15;6.50;1.00
4813;DHT22;2420;51.202;8.698;2023-02-03T08:10:41;6.30;1.00
4813;DHT22;2420;51.202;8.698;2023-02-03T08:13:06;6.30;1.00
4813;DHT22;2420;51.202;8.698;2023-02-03T08:15:32;6.40;1.00
4813;DHT22;2420;51.202;8.698;2023-02-03T08:17:58;6.40;1.00
4813;DHT22;2420;51.202;8.698;2023-02-03T08:20:23;6.60;1.00
4813;DHT22;2420;51.202;8.698;2023-02-03T08:22:49;6.40;1.00
4813;DHT22;2420;51.202;8.698;2023-02-03T08:25:14;6.40;1.00
4813;DHT22;2420;51.202;8.698;2023-02-03T08:27:40;6.40;1.00
4813;DHT22;2420;51.202;8.698;2023-02-03T08:30:07;6.50;1.00
4813;DHT22;2420;51.202;8.698;2023-02-03T08:32:33;6.50;1.00
4813;DHT22;2420;51.202;8.698;2023-02-03T08:34:59;6.50;1.00
4813;DHT22;2420;51.202;8.698;2023-02-03T08:37:25;6.50;1.00
4813;DHT22;2420;51.202;8.698;2023-02-03T08:39:51;6.50;1.00
4813;DHT22;2420;51.202;8.698;2023-02-03T08:42:16;6.50;1.00
4813;DHT22;2420;51.202;8.698;2023-02-03T08:44:42;6.50;1.00
4813;DHT22;2420;51.202;8.698;2023-02-03T08:47:08;6.60;1.00
4813;DHT22;2420;51.202;8.698;2023-02-03T08:49:34;6.60;1.00
4813;DHT22;2420;51.202;8.698;2023-02-03T08:52:00;6.60;1.00
4813;DHT22;2420;51.202;8.698;2023-02-03T08:54:26;6.70;1.00
4813;DHT22;2420;51.202;8.698;2023-02-03T08:56:52;6.70;1.00
4813;DHT22;2420;51.202;8.698;2023-02-03T08:59:18;6.70;1.00
4813;DHT22;2420;51.202;8.698;2023-02-03T09:01:44;6.70;1.00
4813;DHT22;2420;51.202;8.698;2023-02-03T09:04:11;6.60;1.00
4813;DHT22;2420;51.202;8.698;2023-02-03T09:06:38;6.70;1.00
4813;DHT22;2420;51.202;8.698;2023-02-03T09:09:04;6.70;1.00
4813;DHT22;2420;51.202;8.698;2023-02-03T09:11:29;6.30;1.00
4813;DHT22;2420;51.202;8.698;2023-02-03T09:13:55;6.60;1.00
4813;DHT22;2420;51.202;8.698;2023-02-03T09:16:22;6.60;1.00
4813;DHT22;2420;51.202;8.698;2023-02-03T09:18:48;6.60;1.00
4813;DHT22;2420;51.202;8.698;2023-02-03T09:21:14;6.60;1.00
4813;DHT22;2420;51.202;8.698;2023-02-03T09:23:41;6.70;1.00
4813;DHT22;2420;51.202;8.698;2023-02-03T09:26:09;6.70;1.00
4813;DHT22;2420;51.202;8.698;2023-02-03T09:28:35;6.70;1.00
4813;DHT22;2420;51.202;8.698;2023-02-03T09:31:12;6.70;1.00
4813;DHT22;2420;51.202;8.698;2023-02-03T09:33:39;6.70;1.00
4813;DHT22;2420;51.202;8.698;2023-02-03T09:36:06;6.60;1.00
4813;DHT22;2420;51.202;8.698;2023-02-03T09:38:34;6.80;1.00
4813;DHT22;2420;51.202;8.698;2023-02-03T09:43:50;7.00;1.00
4813;DHT22;2420;51.202;8.698;2023-02-03T09:46:25;6.80;1.00
4813;DHT22;2420;51.202;8.698;2023-02-03T09:48:57;6.80;1.00
4813;DHT22;2420;51.202;8.698;2023-02-03T09:51:44;6.90;1.00
4813;DHT22;2420;51.202;8.698;2023-02-03T09:54:43;6.90;1.00
4813;DHT22;2420;51.202;8.698;2023-02-03T09:57:21;6.90;1.00
4813;DHT22;2420;51.202;8.698;2023-02-03T09:59:47;6.90;1.00
4813;DHT22;2420;51.202;8.698;2023-02-03T10:05:24;6.90;1.00
4813;DHT22;2420;51.202;8.698;2023-02-03T10:08:20;7.00;1.00
4813;DHT22;2420;51.202;8.698;2023-02-03T10:16:42;7.10;1.00
4813;DHT22;2420;51.202;8.698;2023-02-03T10:19:21;7.00;1.00
4813;DHT22;2420;51.202;8.698;2023-02-03T10:21:51;7.00;1.00
4813;DHT22;2420;51.202;8.698;2023-02-03T10:24:29;7.00;1.00
4813;DHT22;2420;51.202;8.698;2023-02-03T10:26:58;7.00;1.00
4813;DHT22;2420;51.202;8.698;2023-02-03T10:29:34;7.10;1.00
4813;DHT22;2420;51.202;8.698;2023-02-03T10:32:00;7.20;1.00
4813;DHT22;2420;51.202;8.698;2023-02-03T10:34:26;7.20;1.00
4813;DHT22;2420;51.202;8.698;2023-02-03T10:36:57;7.10;1.00
4813;DHT22;2420;51.202;8.698;2023-02-03T10:39:49;7.10;1.00
4813;DHT22;2420;51.202;8.698;2023-02-03T10:42:15;7.10;1.00
4813;DHT22;2420;51.202;8.698;2023-02-03T10:47:26;7.10;1.00
4813;DHT22;2420;51.202;8.698;2023-02-03T10:49:53;7.10;1.00
4813;DHT22;2420;51.202;8.698;2023-02-03T10:52:31;7.10;1.00
4813;DHT22;2420;51.202;8.698;2023-02-03T10:55:01;7.10;1.00
4813;DHT22;2420;51.202;8.698;2023-02-03T10:57:29;7.20;1.00
4813;DHT22;2420;51.202;8.698;2023-02-03T11:00:19;7.20;1.00
4813;DHT22;2420;51.202;8.698;2023-02-03T11:05:37;7.20;1.00
4813;DHT22;2420;51.202;8.698;2023-02-03T11:08:02;7.20;1.00
4813;DHT22;2420;51.202;8.698;2023-02-03T11:10:31;7.20;1.00
4813;DHT22;2420;51.202;8.698;2023-02-03T11:13:15;7.10;1.00
4813;DHT22;2420;51.202;8.698;2023-02-03T11:15:54;7.10;1.00
4813;DHT22;2420;51.202;8.698;2023-02-03T11:21:31;7.10;1.00
4813;DHT22;2420;51.202;8.698;2023-02-03T11:24:18;7.00;1.00
4813;DHT22;2420;51.202;8.698;2023-02-03T11:29:33;7.10;1.00
4813;DHT22;2420;51.202;8.698;2023-02-03T11:32:02;7.10;1.00
4813;DHT22;2420;51.202;8.698;2023-02-03T11:34:36;7.10;1.00
4813;DHT22;2420;51.202;8.698;2023-02-03T11:37:28;7.10;1.00
4813;DHT22;2420;51.202;8.698;2023-02-03T11:42:34;7.10;1.00
4813;DHT22;2420;51.202;8.698;2023-02-03T11:47:37;7.10;1.00
4813;DHT22;2420;51.202;8.698;2023-02-03T11:50:21;7.00;1.00
4813;DHT22;2420;51.202;8.698;2023-02-03T11:52:59;7.10;1.00
4813;DHT22;2420;51.202;8.698;2023-02-03T11:55:41;7.00;1.00
4813;DHT22;2420;51.202;8.698;2023-02-03T11:58:24;7.00;1.00
4813;DHT22;2420;51.202;8.698;2023-02-03T12:06:55;7.00;1.00
4813;DHT22;2420;51.202;8.698;2023-02-03T12:09:30;7.00;1.00
4813;DHT22;2420;51.202;8.698;2023-02-03T12:28:50;7.10;1.00
4813;DHT22;2420;51.202;8.698;2023-02-03T12:34:26;7.00;1.00
4813;DHT22;2420;51.202;8.698;2023-02-03T12:37:05;7.10;1.00
4813;DHT22;2420;51.202;8.698;2023-02-03T12:39:42;7.00;1.00
4813;DHT22;2420;51.202;8.698;2023-02-03T12:42:19;7.00;1.00
4813;DHT22;2420;51.202;8.698;2023-02-03T12:44:59;7.10;1.00
4813;DHT22;2420;51.202;8.698;2023-02-03T12:47:44;7.00;1.00
4813;DHT22;2420;51.202;8.698;2023-02-03T12:50:31;7.00;1.00
4813;DHT22;2420;51.202;8.698;2023-02-03T12:55:44;7.00;1.00
4813;DHT22;2420;51.202;8.698;2023-02-03T12:58:14;7.00;1.00
4813;DHT22;2420;51.202;8.698;2023-02-03T13:04:28;7.00;1.00
4813;DHT22;2420;51.202;8.698;2023-02-03T13:06:26;7.10;1.00
4813;DHT22;2420;51.202;8.698;2023-02-03T13:11:53;7.10;1.00
4813;DHT22;2420;51.202;8.698;2023-02-03T13:16:51;7.10;1.00
4813;DHT22;2420;51.202;8.698;2023-02-03T13:19:21;7.20;1.00
4813;DHT22;2420;51.202;8.698;2023-02-03T13:21:49;7.10;1.00
4813;DHT22;2420;51.202;8.698;2023-02-03T13:24:15;7.10;1.00
4813;DHT22;2420;51.202;8.698;2023-02-03T13:27:50;7.20;1.00
4813;DHT22;2420;51.202;8.698;2023-02-03T13:33:00;7.20;1.00
4813;DHT22;2420;51.202;8.698;2023-02-03T13:38:26;7.20;1.00
4813;DHT22;2420;51.202;8.698;2023-02-03T13:41:04;7.20;1.00
4813;DHT22;2420;51.202;8.698;2023-02-03T13:43:36;7.20;1.00
4813;DHT22;2420;51.202;8.698;2023-02-03T13:46:04;7.20;1.00
4813;DHT22;2420;51.202;8.698;2023-02-03T13:48:31;7.20;1.00
4813;DHT22;2420;51.202;8.698;2023-02-03T13:51:13;7.20;1.00
4813;DHT22;2420;51.202;8.698;2023-02-03T13:53:43;7.20;1.00
4813;DHT22;2420;51.202;8.698;2023-02-03T13:56:35;7.20;1.00
4813;DHT22;2420;51.202;8.698;2023-02-03T14:07:37;7.10;1.00
4813;DHT22;2420;51.202;8.698;2023-02-03T14:10:20;7.00;1.00
4813;DHT22;2420;51.202;8.698;2023-02-03T14:23:08;6.70;1.00
4813;DHT22;2420;51.202;8.698;2023-02-03T14:25:47;6.60;1.00
4813;DHT22;2420;51.202;8.698;2023-02-03T14:28:18;6.50;1.00
4813;DHT22;2420;51.202;8.698;2023-02-03T14:32:10;6.50;1.00
4813;DHT22;2420;51.202;8.698;2023-02-03T14:34:06;6.30;1.00
4813;DHT22;2420;51.202;8.698;2023-02-03T14:36:43;6.50;1.00
4813;DHT22;2420;51.202;8.698;2023-02-03T14:45:03;6.40;1.00
4813;DHT22;2420;51.202;8.698;2023-02-03T14:50:18;6.30;1.00
4813;DHT22;2420;51.202;8.698;2023-02-03T14:58:29;6.30;1.00
4813;DHT22;2420;51.202;8.698;2023-02-03T15:00:56;6.20;1.00
4813;DHT22;2420;51.202;8.698;2023-02-03T15:03:24;6.20;1.00
4813;DHT22;2420;51.202;8.698;2023-02-03T15:05:55;6.20;1.00
4813;DHT22;2420;51.202;8.698;2023-02-03T15:08:37;5.90;1.00
4813;DHT22;2420;51.202;8.698;2023-02-03T15:11:23;6.10;1.00
4813;DHT22;2420;51.202;8.698;2023-02-03T15:13:49;5.80;1.00
4813;DHT22;2420;51.202;8.698;2023-02-03T15:16:19;6.20;1.00
4813;DHT22;2420;51.202;8.698;2023-02-03T15:18:53;6.20;1.00
4813;DHT22;2420;51.202;8.698;2023-02-03T15:21:19;6.30;1.00
4813;DHT22;2420;51.202;8.698;2023-02-03T15:23:47;6.30;1.00
4813;DHT22;2420;51.202;8.698;2023-02-03T15:26:25;6.20;1.00
4813;DHT22;2420;51.202;8.698;2023-02-03T15:28:59;5.90;1.00
4813;DHT22;2420;51.202;8.698;2023-02-03T15:33:51;6.10;1.00
4813;DHT22;2420;51.202;8.698;2023-02-03T15:36:26;6.00;1.00
4813;DHT22;2420;51.202;8.698;2023-02-03T15:39:11;6.20;1.00
4813;DHT22;2420;51.202;8.698;2023-02-03T15:41:38;6.10;1.00
4813;DHT22;2420;51.202;8.698;2023-02-03T15:44:16;6.10;1.00
4813;DHT22;2420;51.202;8.698;2023-02-03T15:46:44;6.10;1.00
4813;DHT22;2420;51.202;8.698;2023-02-03T15:49:16;6.10;1.00
4813;DHT22;2420;51.202;8.698;2023-02-03T15:51:48;6.30;1.00
4813;DHT22;2420;51.202;8.698;2023-02-03T15:57:23;6.20;1.00
4813;DHT22;2420;51.202;8.698;2023-02-03T15:59:58;6.00;1.00
4813;DHT22;2420;51.202;8.698;2023-02-03T16:02:30;6.00;1.00
4813;DHT22;2420;51.202;8.698;2023-02-03T16:04:57;6.00;1.00
4813;DHT22;2420;51.202;8.698;2023-02-03T16:07:28;5.90;1.00
4813;DHT22;2420;51.202;8.698;2023-02-03T16:09:56;5.90;1.00
4813;DHT22;2420;51.202;8.698;2023-02-03T16:12:32;5.90;1.00
4813;DHT22;2420;51.202;8.698;2023-02-03T16:15:00;5.40;1.00
4813;DHT22;2420;51.202;8.698;2023-02-03T16:17:34;5.50;1.00
4813;DHT22;2420;51.202;8.698;2023-02-03T16:22:44;5.80;1.00
4813;DHT22;2420;51.202;8.698;2023-02-03T16:25:28;5.80;1.00
4813;DHT22;2420;51.202;8.698;2023-02-03T16:30:54;5.80;1.00
4813;DHT22;2420;51.202;8.698;2023-02-03T16:33:39;5.70;1.00
4813;DHT22;2420;51.202;8.698;2023-02-03T16:36:26;5.90;1.00
4813;DHT22;2420;51.202;8.698;2023-02-03T16:39:11;5.70;1.00
4813;DHT22;2420;51.202;8.698;2023-02-03T16:42:00;5.90;1.00
4813;DHT22;2420;51.202;8.698;2023-02-03T16:44:49;5.80;1.00
4813;DHT22;2420;51.202;8.698;2023-02-03T16:47:35;5.80;1.00
4813;DHT22;2420;51.202;8.698;2023-02-03T16:50:23;5.80;1.00
4813;DHT22;2420;51.202;8.698;2023-02-03T16:53:19;5.80;1.00
4813;DHT22;2420;51.202;8.698;2023-02-03T16:55:45;5.70;1.00
4813;DHT22;2420;51.202;8.698;2023-02-03T16:58:11;5.80;1.00
4813;DHT22;2420;51.202;8.698;2023-02-03T17:00:44;5.80;1.00
4813;DHT22;2420;51.202;8.698;2023-02-03T17:03:16;6.00;1.00
4813;DHT22;2420;51.202;8.698;2023-02-03T17:05:44;5.80;1.00
4813;DHT22;2420;51.202;8.698;2023-02-03T17:08:10;5.80;1.00
4813;DHT22;2420;51.202;8.698;2023-02-03T17:10:37;5.80;1.00
4813;DHT22;2420;51.202;8.698;2023-02-03T17:13:05;5.80;1.00
4813;DHT22;2420;51.202;8.698;2023-02-03T17:15:32;5.80;1.00
4813;DHT22;2420;51.202;8.698;2023-02-03T17:17:58;5.80;1.00
4813;DHT22;2420;51.202;8.698;2023-02-03T17:20:23;5.70;1.00
4813;DHT22;2420;51.202;8.698;2023-02-03T17:22:49;5.70;1.00
4813;DHT22;2420;51.202;8.698;2023-02-03T17:25:18;5.80;1.00
4813;DHT22;2420;51.202;8.698;2023-02-03T17:27:44;5.70;1.00
4813;DHT22;2420;51.202;8.698;2023-02-03T17:30:10;5.60;1.00
4813;DHT22;2420;51.202;8.698;2023-02-03T17:32:36;5.60;1.00
4813;DHT22;2420;51.202;8.698;2023-02-03T17:35:01;5.60;1.00
4813;DHT22;2420;51.202;8.698;2023-02-03T17:37:27;5.50;1.00
4813;DHT22;2420;51.202;8.698;2023-02-03T17:39:52;5.70;1.00
4813;DHT22;2420;51.202;8.698;2023-02-03T17:42:18;5.70;1.00
4813;DHT22;2420;51.202;8.698;2023-02-03T17:44:43;5.70;1.00
4813;DHT22;2420;51.202;8.698;2023-02-03T17:47:09;5.50;1.00
4813;DHT22;2420;51.202;8.698;2023-02-03T17:49:34;5.50;1.00
4813;DHT22;2420;51.202;8.698;2023-02-03T17:52:00;5.50;1.00
4813;DHT22;2420;51.202;8.698;2023-02-03T17:54:25;5.40;1.00
4813;DHT22;2420;51.202;8.698;2023-02-03T17:56:51;5.50;1.00
4813;DHT22;2420;51.202;8.698;2023-02-03T17:59:16;5.40;1.00
4813;DHT22;2420;51.202;8.698;2023-02-03T18:01:42;5.40;1.00
4813;DHT22;2420;51.202;8.698;2023-02-03T18:04:08;5.40;1.00
4813;DHT22;2420;51.202;8.698;2023-02-03T18:06:33;5.40;1.00
4813;DHT22;2420;51.202;8.698;2023-02-03T18:09:03;5.40;1.00
4813;DHT22;2420;51.202;8.698;2023-02-03T18:11:30;5.40;1.00
4813;DHT22;2420;51.202;8.698;2023-02-03T18:13:56;5.30;1.00
4813;DHT22;2420;51.202;8.698;2023-02-03T18:16:24;5.30;1.00
4813;DHT22;2420;51.202;8.698;2023-02-03T18:18:51;5.20;1.00
4813;DHT22;2420;51.202;8.698;2023-02-03T18:21:18;5.30;1.00
4813;DHT22;2420;51.202;8.698;2023-02-03T18:23:44;5.50;1.00
4813;DHT22;2420;51.202;8.698;2023-02-03T18:26:11;5.20;1.00
4813;DHT22;2420;51.202;8.698;2023-02-03T18:28:38;5.30;1.00
4813;DHT22;2420;51.202;8.698;2023-02-03T18:31:06;5.10;1.00
4813;DHT22;2420;51.202;8.698;2023-02-03T18:33:33;5.20;1.00
4813;DHT22;2420;51.202;8.698;2023-02-03T18:35:59;5.40;1.00
4813;DHT22;2420;51.202;8.698;2023-02-03T18:38:27;5.30;1.00
4813;DHT22;2420;51.202;8.698;2023-02-03T18:40:53;5.40;1.00
4813;DHT22;2420;51.202;8.698;2023-02-03T18:43:20;5.20;1.00
4813;DHT22;2420;51.202;8.698;2023-02-03T18:45:45;5.40;1.00
4813;DHT22;2420;51.202;8.698;2023-02-03T18:48:11;5.20;1.00
4813;DHT22;2420;51.202;8.698;2023-02-03T18:50:40;5.00;1.00
4813;DHT22;2420;51.202;8.698;2023-02-03T18:53:06;5.20;1.00
4813;DHT22;2420;51.202;8.698;2023-02-03T18:55:31;5.30;1.00
4813;DHT22;2420;51.202;8.698;2023-02-03T18:57:57;5.20;1.00
4813;DHT22;2420;51.202;8.698;2023-02-03T19:00:22;5.30;1.00
4813;DHT22;2420;51.202;8.698;2023-02-03T19:02:48;5.10;1.00
4813;DHT22;2420;51.202;8.698;2023-02-03T19:05:15;5.20;1.00
4813;DHT22;2420;51.202;8.698;2023-02-03T19:07:40;5.30;1.00
4813;DHT22;2420;51.202;8.698;2023-02-03T19:10:07;5.30;1.00
4813;DHT22;2420;51.202;8.698;2023-02-03T19:12:32;5.20;1.00
4813;DHT22;2420;51.202;8.698;2023-02-03T19:14:58;5.30;1.00
4813;DHT22;2420;51.202;8.698;2023-02-03T19:17:23;5.20;1.00